createdAt,value
2018-10-19T00:00:35.525Z,23.75
2018-10-19T00:01:35.507Z,23.81
2018-10-19T00:02:35.519Z,23.79
2018-10-19T00:03:35.482Z,23.79
2018-10-19T00:04:35.511Z,23.75
2018-10-19T00:05:35.482Z,23.72
2018-10-19T00:06:35.457Z,23.78
2018-10-19T00:07:35.455Z,23.81
2018-10-19T00:08:35.432Z,23.70
2018-10-19T00:09:35.418Z,23.77
2018-10-19T00:10:35.409Z,23.72
2018-10-19T00:11:35.397Z,23.78
2018-10-19T00:12:35.502Z,23.70
2018-10-19T00:13:35.377Z,23.72
2018-10-19T00:14:35.366Z,23.72
2018-10-19T00:15:35.352Z,23.72
2018-10-19T00:16:35.341Z,23.75
2018-10-19T00:17:35.340Z,23.74
2018-10-19T00:18:35.339Z,23.75
2018-10-19T00:19:35.309Z,23.77
2018-10-19T00:20:35.309Z,23.72
2018-10-19T00:21:35.284Z,23.75
2018-10-19T00:22:35.302Z,23.66
2018-10-19T00:23:35.271Z,23.74
2018-10-19T00:24:35.256Z,23.75
2018-10-19T00:25:35.246Z,23.67
2018-10-19T00:26:35.234Z,23.70
2018-10-19T00:27:35.224Z,23.78
2018-10-19T00:28:35.239Z,23.67
2018-10-19T00:29:35.203Z,23.66
2018-10-19T00:30:35.193Z,23.66
2018-10-19T00:31:35.180Z,23.72
2018-10-19T00:32:35.166Z,23.75
2018-10-19T00:33:35.168Z,23.64
2018-10-19T00:34:35.144Z,23.64
2018-10-19T00:35:35.135Z,23.67
2018-10-19T00:36:35.154Z,23.64
2018-10-19T00:37:35.114Z,23.64
2018-10-19T00:38:35.138Z,23.71
2018-10-19T00:39:35.106Z,23.63
2018-10-19T00:40:35.080Z,23.70
2018-10-19T00:41:35.079Z,23.70
2018-10-19T00:42:35.060Z,23.71
2018-10-19T00:43:35.062Z,23.67
2018-10-19T00:44:35.040Z,23.60
2018-10-19T00:45:35.028Z,23.71
2018-10-19T00:46:35.018Z,23.67
2018-10-19T00:47:35.003Z,23.63
2018-10-19T00:48:35.010Z,23.64
2018-10-19T00:49:34.980Z,23.67
2018-10-19T00:50:34.974Z,23.64
2018-10-19T00:51:34.974Z,23.67
2018-10-19T00:52:34.950Z,23.62
2018-10-19T00:53:34.949Z,23.64
2018-10-19T00:54:34.932Z,23.63
2018-10-19T00:55:34.915Z,23.62
2018-10-19T00:56:34.903Z,23.71
2018-10-19T00:57:34.895Z,23.67
2018-10-19T00:58:34.912Z,23.62
2018-10-19T00:59:35.450Z,23.64
2018-10-19T01:00:34.864Z,23.66
2018-10-19T01:01:34.849Z,23.64
2018-10-19T01:02:34.840Z,23.75
2018-10-19T01:03:34.829Z,23.66
2018-10-19T01:04:34.841Z,23.67
2018-10-19T01:05:34.805Z,23.64
2018-10-19T01:06:34.804Z,23.60
2018-10-19T01:07:34.785Z,23.71
2018-10-19T01:08:34.772Z,23.67
2018-10-19T01:09:34.773Z,23.64
2018-10-19T01:10:34.750Z,23.71
2018-10-19T01:11:34.740Z,23.64
2018-10-19T01:12:34.728Z,23.66
2018-10-19T01:13:34.717Z,23.59
2018-10-19T01:14:34.736Z,23.55
2018-10-19T01:15:34.694Z,23.60
2018-10-19T01:16:34.687Z,23.60
2018-10-19T01:17:34.674Z,23.62
2018-10-19T01:18:34.662Z,23.66
2018-10-19T01:19:34.665Z,23.59
2018-10-19T01:20:34.640Z,23.67
2018-10-19T01:21:34.628Z,23.63
2018-10-19T01:22:34.619Z,23.60
2018-10-19T01:23:34.612Z,23.67
2018-10-19T01:24:34.606Z,23.59
2018-10-19T01:25:34.583Z,23.70
2018-10-19T01:26:34.573Z,23.62
2018-10-19T01:27:34.565Z,23.67
2018-10-19T01:28:34.551Z,23.55
2018-10-19T01:29:34.572Z,23.60
2018-10-19T01:30:34.530Z,23.63
2018-10-19T01:31:34.522Z,23.62
2018-10-19T01:32:34.508Z,23.66
2018-10-19T01:33:34.495Z,23.63
2018-10-19T01:34:34.488Z,23.62
2018-10-19T01:35:34.487Z,23.55
2018-10-19T01:36:34.467Z,23.62
2018-10-19T01:37:34.470Z,23.57
2018-10-19T01:38:34.442Z,23.52
2018-10-19T01:39:34.433Z,23.50
2018-10-19T01:40:34.433Z,23.57
2018-10-19T01:41:34.409Z,23.53
2018-10-19T01:42:34.397Z,23.67
2018-10-19T01:43:34.387Z,23.52
2018-10-19T01:44:34.380Z,23.55
2018-10-19T01:45:34.390Z,23.59
2018-10-19T01:46:34.361Z,23.52
2018-10-19T01:47:34.345Z,23.57
2018-10-19T01:48:34.333Z,23.52
2018-10-19T01:49:34.321Z,23.52
2018-10-19T01:50:34.327Z,23.56
2018-10-19T01:51:34.306Z,23.56
2018-10-19T01:52:34.292Z,23.50
2018-10-19T01:53:34.277Z,23.55
2018-10-19T01:54:34.272Z,23.59
2018-10-19T01:55:34.269Z,23.53
2018-10-19T01:56:34.247Z,23.55
2018-10-19T01:57:34.235Z,23.55
2018-10-19T01:58:34.230Z,23.57
2018-10-19T01:59:34.214Z,23.56
2018-10-19T02:00:34.234Z,23.56
2018-10-19T02:01:34.191Z,23.57
2018-10-19T02:02:34.186Z,23.59
2018-10-19T02:03:34.174Z,23.56
2018-10-19T02:04:34.157Z,23.55
2018-10-19T02:05:34.174Z,23.56
2018-10-19T02:06:34.136Z,23.53
2018-10-19T02:07:34.126Z,23.55
2018-10-19T02:08:34.118Z,23.53
2018-10-19T02:09:34.121Z,23.55
2018-10-19T02:10:34.092Z,23.55
2018-10-19T02:11:34.093Z,23.55
2018-10-19T02:12:34.072Z,23.52
2018-10-19T02:13:34.060Z,23.55
2018-10-19T02:14:34.049Z,23.52
2018-10-19T02:15:34.052Z,23.55
2018-10-19T02:16:34.049Z,23.52
2018-10-19T02:17:34.017Z,23.59
2018-10-19T02:18:34.012Z,23.55
2018-10-19T02:19:33.994Z,23.57
2018-10-19T02:20:33.984Z,23.47
2018-10-19T02:21:33.983Z,23.59
2018-10-19T02:22:33.965Z,23.52
2018-10-19T02:23:33.972Z,23.59
2018-10-19T02:24:33.939Z,23.55
2018-10-19T02:25:33.933Z,23.60
2018-10-19T02:26:33.932Z,23.57
2018-10-19T02:27:33.905Z,23.50
2018-10-19T02:28:33.900Z,23.53
2018-10-19T02:29:33.884Z,23.56
2018-10-19T02:30:33.875Z,23.56
2018-10-19T02:31:33.877Z,23.45
2018-10-19T02:32:33.850Z,23.52
2018-10-19T02:33:33.860Z,23.56
2018-10-19T02:34:33.828Z,23.55
2018-10-19T02:35:33.816Z,23.47
2018-10-19T02:36:33.819Z,23.52
2018-10-19T02:37:33.796Z,23.52
2018-10-19T02:38:33.786Z,23.45
2018-10-19T02:39:33.782Z,23.47
2018-10-19T02:40:33.761Z,23.56
2018-10-19T02:41:33.772Z,23.52
2018-10-19T02:42:33.740Z,23.48
2018-10-19T02:43:33.733Z,23.52
2018-10-19T02:44:33.718Z,23.53
2018-10-19T02:45:33.707Z,23.47
2018-10-19T02:46:33.744Z,23.50
2018-10-19T02:47:33.688Z,23.50
2018-10-19T02:48:33.674Z,23.47
2018-10-19T02:49:33.668Z,23.45
2018-10-19T02:50:33.652Z,23.48
2018-10-19T02:51:33.656Z,23.53
2018-10-19T02:52:33.630Z,23.47
2018-10-19T02:53:33.620Z,23.52
2018-10-19T02:54:33.608Z,23.45
2018-10-19T02:55:33.596Z,23.47
2018-10-19T02:56:33.634Z,23.47
2018-10-19T02:57:33.574Z,23.42
2018-10-19T02:58:33.563Z,23.45
2018-10-19T02:59:33.552Z,23.47
2018-10-19T03:00:33.546Z,23.45
2018-10-19T03:01:33.536Z,23.44
2018-10-19T03:02:33.535Z,23.44
2018-10-19T03:03:33.510Z,23.42
2018-10-19T03:04:33.499Z,23.48
2018-10-19T03:05:33.486Z,23.41
2018-10-19T03:06:33.482Z,23.45
2018-10-19T03:07:33.492Z,23.50
2018-10-19T03:08:33.454Z,23.44
2018-10-19T03:09:33.453Z,23.47
2018-10-19T03:10:33.433Z,23.37
2018-10-19T03:11:33.474Z,23.40
2018-10-19T03:12:33.424Z,23.40
2018-10-19T03:13:33.401Z,23.38
2018-10-19T03:14:33.390Z,23.44
2018-10-19T03:15:33.381Z,23.40
2018-10-19T03:16:33.366Z,23.44
2018-10-19T03:17:33.366Z,23.38
2018-10-19T03:18:33.348Z,23.44
2018-10-19T03:19:33.352Z,23.47
2018-10-19T03:20:33.322Z,23.52
2018-10-19T03:21:33.311Z,23.38
2018-10-19T03:22:33.315Z,23.45
2018-10-19T03:23:33.297Z,23.41
2018-10-19T03:24:33.285Z,23.38
2018-10-19T03:25:33.267Z,23.40
2018-10-19T03:26:33.262Z,23.45
2018-10-19T03:27:33.257Z,23.44
2018-10-19T03:28:33.238Z,23.38
2018-10-19T03:29:33.223Z,23.41
2018-10-19T03:30:33.220Z,23.38
2018-10-19T03:31:33.211Z,23.48
2018-10-19T03:32:33.215Z,23.40
2018-10-19T03:33:33.176Z,23.38
2018-10-19T03:34:33.167Z,23.45
2018-10-19T03:35:33.170Z,23.35
2018-10-19T03:36:33.144Z,23.38
2018-10-19T03:37:33.163Z,23.38
2018-10-19T03:38:33.124Z,23.40
2018-10-19T03:39:33.110Z,23.40
2018-10-19T03:40:33.101Z,23.47
2018-10-19T03:41:33.094Z,23.37
2018-10-19T03:42:33.099Z,23.34
2018-10-19T03:43:33.080Z,23.42
2018-10-19T03:44:33.060Z,23.34
2018-10-19T03:45:33.045Z,23.47
2018-10-19T03:46:33.035Z,23.44
2018-10-19T03:47:33.031Z,23.35
2018-10-19T03:48:33.045Z,23.45
2018-10-19T03:49:33.000Z,23.41
2018-10-19T03:50:32.992Z,23.41
2018-10-19T03:51:32.980Z,23.35
2018-10-19T03:52:32.971Z,23.41
2018-10-19T03:53:32.970Z,23.38
2018-10-19T03:54:32.944Z,23.34
2018-10-19T03:55:32.954Z,23.40
2018-10-19T03:56:32.924Z,23.40
2018-10-19T03:57:32.919Z,23.44
2018-10-19T03:58:32.925Z,23.42
2018-10-19T03:59:32.890Z,23.37
2018-10-19T04:00:32.878Z,23.48
2018-10-19T04:01:32.870Z,23.42
2018-10-19T04:02:32.855Z,23.37
2018-10-19T04:03:32.920Z,23.47
2018-10-19T04:04:32.847Z,23.38
2018-10-19T04:05:32.843Z,23.41
2018-10-19T04:06:32.811Z,23.45
2018-10-19T04:07:32.802Z,23.42
2018-10-19T04:08:32.793Z,23.41
2018-10-19T04:09:32.797Z,23.44
2018-10-19T04:10:32.774Z,23.37
2018-10-19T04:11:32.760Z,23.32
2018-10-19T04:12:32.746Z,23.38
2018-10-19T04:13:32.734Z,23.50
2018-10-19T04:14:32.734Z,23.44
2018-10-19T04:15:32.716Z,23.41
2018-10-19T04:16:32.718Z,23.40
2018-10-19T04:17:32.690Z,23.42
2018-10-19T04:18:32.683Z,23.42
2018-10-19T04:19:32.680Z,23.38
2018-10-19T04:20:32.658Z,23.42
2018-10-19T04:21:32.651Z,23.40
2018-10-19T04:22:32.634Z,23.35
2018-10-19T04:23:32.627Z,23.34
2018-10-19T04:24:32.632Z,23.32
2018-10-19T04:25:32.602Z,23.41
2018-10-19T04:26:32.591Z,23.32
2018-10-19T04:27:32.618Z,23.40
2018-10-19T04:28:32.595Z,23.40
2018-10-19T04:29:32.573Z,23.41
2018-10-19T04:30:32.548Z,23.38
2018-10-19T04:31:32.539Z,23.41
2018-10-19T04:32:32.528Z,23.44
2018-10-19T04:33:32.514Z,23.41
2018-10-19T04:34:32.535Z,23.47
2018-10-19T04:35:32.493Z,23.40
2018-10-19T04:36:32.481Z,23.37
2018-10-19T04:37:32.474Z,23.41
2018-10-19T04:38:32.463Z,23.45
2018-10-19T04:39:32.471Z,23.35
2018-10-19T04:40:32.439Z,23.40
2018-10-19T04:41:32.596Z,23.34
2018-10-19T04:42:32.416Z,23.41
2018-10-19T04:43:32.405Z,23.34
2018-10-19T04:44:32.415Z,23.35
2018-10-19T04:45:32.384Z,23.34
2018-10-19T04:46:32.375Z,23.35
2018-10-19T04:47:32.365Z,23.34
2018-10-19T04:48:32.350Z,23.40
2018-10-19T04:49:32.351Z,23.37
2018-10-19T04:50:32.329Z,23.35
2018-10-19T04:51:32.334Z,23.44
2018-10-19T04:52:32.306Z,23.40
2018-10-19T04:53:32.298Z,23.41
2018-10-19T04:54:32.310Z,23.45
2018-10-19T04:55:32.315Z,23.35
2018-10-19T04:56:32.262Z,23.34
2018-10-19T04:57:32.276Z,23.37
2018-10-19T04:58:32.239Z,23.40
2018-10-19T04:59:32.228Z,23.41
2018-10-19T05:00:32.230Z,23.32
2018-10-19T05:01:32.207Z,23.29
2018-10-19T05:02:32.236Z,23.41
2018-10-19T05:03:32.185Z,23.35
2018-10-19T05:04:32.223Z,23.37
2018-10-19T05:05:32.242Z,23.40
2018-10-19T05:06:32.246Z,23.38
2018-10-19T05:07:32.142Z,23.42
2018-10-19T05:08:32.132Z,23.41
2018-10-19T05:09:32.118Z,23.35
2018-10-19T05:10:32.119Z,23.32
2018-10-19T05:11:32.099Z,23.38
2018-10-19T05:12:32.121Z,23.37
2018-10-19T05:13:32.078Z,23.42
2018-10-19T05:14:32.077Z,23.40
2018-10-19T05:15:32.063Z,23.29
2018-10-19T05:16:32.044Z,23.32
2018-10-19T05:17:32.031Z,23.42
2018-10-19T05:18:32.021Z,23.40
2018-10-19T05:19:32.008Z,23.44
2018-10-19T05:20:32.009Z,23.37
2018-10-19T05:21:31.987Z,23.37
2018-10-19T05:22:31.978Z,23.44
2018-10-19T05:23:31.965Z,23.42
2018-10-19T05:24:31.984Z,23.34
2018-10-19T05:25:31.952Z,23.37
2018-10-19T05:26:31.930Z,23.37
2018-10-19T05:27:31.922Z,23.34
2018-10-19T05:28:31.909Z,23.37
2018-10-19T05:29:31.900Z,23.41
2018-10-19T05:30:31.899Z,23.34
2018-10-19T05:31:31.878Z,23.42
2018-10-19T05:32:31.867Z,23.34
2018-10-19T05:33:31.852Z,23.29
2018-10-19T05:34:31.843Z,23.41
2018-10-19T05:35:31.859Z,23.34
2018-10-19T05:36:31.824Z,23.35
2018-10-19T05:37:31.817Z,23.32
2018-10-19T05:38:31.800Z,23.42
2018-10-19T05:39:31.790Z,23.44
2018-10-19T05:40:31.777Z,23.32
2018-10-19T05:41:31.780Z,23.26
2018-10-19T05:42:31.753Z,23.34
2018-10-19T05:43:31.797Z,23.28
2018-10-19T05:44:31.732Z,23.29
2018-10-19T05:45:31.721Z,23.24
2018-10-19T05:46:31.745Z,23.32
2018-10-19T05:47:31.733Z,23.29
2018-10-19T05:48:31.687Z,23.34
2018-10-19T05:49:31.675Z,23.37
2018-10-19T05:50:31.665Z,23.25
2018-10-19T05:51:31.669Z,23.32
2018-10-19T05:52:31.643Z,23.29
2018-10-19T05:53:31.638Z,23.38
2018-10-19T05:54:31.624Z,23.28
2018-10-19T05:55:31.609Z,23.24
2018-10-19T05:56:31.608Z,23.28
2018-10-19T05:57:31.586Z,23.35
2018-10-19T05:58:31.581Z,23.24
2018-10-19T05:59:31.565Z,23.25
2018-10-19T06:00:31.570Z,23.25
2018-10-19T06:01:31.558Z,23.26
2018-10-19T06:02:31.672Z,23.37
2018-10-19T06:03:31.525Z,23.32
2018-10-19T06:04:31.514Z,23.26
2018-10-19T06:05:31.499Z,23.26
2018-10-19T06:06:31.501Z,23.28
2018-10-19T06:07:31.477Z,23.24
2018-10-19T06:08:31.471Z,23.25
2018-10-19T06:09:31.457Z,23.25
2018-10-19T06:10:31.455Z,23.28
2018-10-19T06:11:31.451Z,23.26
2018-10-19T06:12:31.421Z,23.25
2018-10-19T06:13:31.435Z,23.28
2018-10-19T06:14:31.400Z,23.32
2018-10-19T06:15:31.388Z,23.25
2018-10-19T06:16:31.388Z,23.25
2018-10-19T06:17:31.364Z,23.25
2018-10-19T06:18:31.353Z,23.29
2018-10-19T06:19:31.343Z,23.28
2018-10-19T06:20:31.336Z,23.25
2018-10-19T06:21:31.345Z,23.25
2018-10-19T06:22:31.309Z,23.24
2018-10-19T06:23:31.318Z,23.22
2018-10-19T06:24:31.288Z,23.29
2018-10-19T06:25:31.280Z,23.28
2018-10-19T06:26:31.307Z,23.25
2018-10-19T06:27:31.267Z,23.24
2018-10-19T06:28:31.243Z,23.29
2018-10-19T06:29:31.232Z,23.25
2018-10-19T06:30:31.222Z,23.24
2018-10-19T06:31:31.211Z,23.22
2018-10-19T06:32:31.210Z,23.25
2018-10-19T06:33:31.233Z,23.24
2018-10-19T06:34:31.178Z,23.26
2018-10-19T06:35:31.167Z,23.29
2018-10-19T06:36:31.159Z,23.28
2018-10-19T06:37:31.154Z,23.35
2018-10-19T06:38:31.136Z,23.28
2018-10-19T06:39:31.123Z,23.25
2018-10-19T06:40:31.130Z,23.28
2018-10-19T06:41:31.101Z,23.21
2018-10-19T06:42:31.102Z,23.28
2018-10-19T06:43:31.100Z,23.28
2018-10-19T06:44:31.068Z,23.28
2018-10-19T06:45:31.056Z,23.28
2018-10-19T06:46:31.103Z,23.21
2018-10-19T06:47:31.045Z,23.28
2018-10-19T06:48:31.043Z,23.28
2018-10-19T06:49:31.010Z,23.24
2018-10-19T06:50:31.001Z,23.29
2018-10-19T06:51:30.989Z,23.29
2018-10-19T06:52:30.993Z,23.26
2018-10-19T06:53:30.966Z,23.28
2018-10-19T06:54:30.957Z,23.25
2018-10-19T06:55:30.948Z,23.28
2018-10-19T06:56:30.953Z,23.16
2018-10-19T06:57:30.932Z,23.28
2018-10-19T06:58:30.916Z,23.19
2018-10-19T06:59:31.045Z,23.24
2018-10-19T07:00:30.890Z,23.26
2018-10-19T07:01:30.880Z,23.21
2018-10-19T07:02:30.888Z,23.22
2018-10-19T07:03:30.858Z,23.28
2018-10-19T07:04:30.853Z,23.19
2018-10-19T07:05:30.910Z,23.32
2018-10-19T07:06:30.833Z,23.24
2018-10-19T07:07:30.813Z,23.29
2018-10-19T07:08:30.883Z,23.28
2018-10-19T07:09:30.799Z,23.24
2018-10-19T07:10:30.783Z,23.28
2018-10-19T07:11:30.767Z,23.24
2018-10-19T07:12:30.759Z,23.24
2018-10-19T07:13:30.757Z,23.24
2018-10-19T07:14:30.734Z,23.18
2018-10-19T07:15:30.724Z,23.25
2018-10-19T07:16:30.720Z,23.24
2018-10-19T07:17:30.702Z,23.28
2018-10-19T07:18:30.705Z,23.24
2018-10-19T07:19:30.704Z,23.25
2018-10-19T07:20:30.671Z,23.22
2018-10-19T07:21:30.711Z,23.24
2018-10-19T07:22:30.666Z,23.24
2018-10-19T07:23:30.662Z,23.28
2018-10-19T07:24:30.629Z,23.28
2018-10-19T07:25:30.678Z,23.24
2018-10-19T07:26:30.601Z,23.24
2018-10-19T07:27:30.595Z,23.32
2018-10-19T07:28:30.583Z,23.26
2018-10-19T07:29:30.662Z,23.29
2018-10-19T07:30:30.577Z,23.25
2018-10-19T07:31:30.548Z,23.25
2018-10-19T07:32:30.551Z,23.22
2018-10-19T07:33:30.586Z,23.22
2018-10-19T07:34:30.599Z,23.25
2018-10-19T07:35:30.505Z,23.28
2018-10-19T07:36:30.557Z,23.26
2018-10-19T07:37:30.485Z,23.25
2018-10-19T07:38:30.469Z,23.28
2018-10-19T07:39:30.469Z,23.24
2018-10-19T07:40:30.451Z,23.25
2018-10-19T07:41:30.468Z,23.22
2018-10-19T07:42:30.516Z,23.35
2018-10-19T07:43:30.420Z,23.28
2018-10-19T07:44:30.414Z,23.34
2018-10-19T07:45:30.409Z,23.25
2018-10-19T07:46:30.384Z,23.28
2018-10-19T07:47:30.423Z,23.21
2018-10-19T07:48:30.409Z,23.29
2018-10-19T07:49:30.357Z,23.28
2018-10-19T07:50:30.357Z,23.26
2018-10-19T07:51:30.353Z,23.25
2018-10-19T07:52:30.312Z,23.28
2018-10-19T07:53:30.311Z,23.26
2018-10-19T07:54:30.307Z,23.32
2018-10-19T07:55:30.298Z,23.28
2018-10-19T07:56:30.274Z,23.32
2018-10-19T07:57:30.257Z,23.26
2018-10-19T07:58:30.247Z,23.28
2018-10-19T07:59:30.247Z,23.26
2018-10-19T08:00:30.262Z,23.28
2018-10-19T08:01:30.213Z,23.25
2018-10-19T08:02:30.201Z,23.19
2018-10-19T08:03:30.192Z,23.24
2018-10-19T08:04:30.206Z,23.28
2018-10-19T08:05:30.196Z,23.29
2018-10-19T08:06:30.157Z,23.25
2018-10-19T08:07:30.155Z,23.24
2018-10-19T08:08:30.135Z,23.25
2018-10-19T08:09:30.124Z,23.24
2018-10-19T08:10:30.126Z,23.24
2018-10-19T08:11:30.114Z,23.25
2018-10-19T08:12:30.092Z,23.25
2018-10-19T08:13:30.084Z,23.28
2018-10-19T08:14:30.068Z,23.32
2018-10-19T08:15:30.068Z,23.28
2018-10-19T08:16:30.051Z,23.24
2018-10-19T08:17:30.040Z,23.28
2018-10-19T08:18:30.030Z,23.28
2018-10-19T08:19:30.015Z,23.28
2018-10-19T08:20:30.013Z,23.34
2018-10-19T08:21:29.997Z,23.29
2018-10-19T08:22:29.979Z,23.34
2018-10-19T08:23:29.968Z,23.32
2018-10-19T08:24:29.962Z,23.25
2018-10-19T08:25:29.978Z,23.28
2018-10-19T08:26:29.944Z,23.25
2018-10-19T08:27:30.133Z,23.24
2018-10-19T08:28:29.934Z,23.26
2018-10-19T08:29:29.905Z,23.29
2018-10-19T08:30:29.919Z,23.28
2018-10-19T08:31:29.883Z,23.28
2018-10-19T08:32:29.874Z,23.28
2018-10-19T08:33:29.881Z,23.25
2018-10-19T08:34:29.856Z,23.29
2018-10-19T08:35:29.850Z,23.29
2018-10-19T08:36:29.844Z,23.32
2018-10-19T08:37:29.872Z,23.34
2018-10-19T08:38:29.808Z,23.37
2018-10-19T08:39:29.792Z,23.28
2018-10-19T08:40:29.783Z,23.25
2018-10-19T08:41:29.804Z,23.32
2018-10-19T08:42:29.759Z,23.25
2018-10-19T08:43:29.748Z,23.29
2018-10-19T08:44:29.744Z,23.26
2018-10-19T08:45:29.727Z,23.29
2018-10-19T08:46:29.734Z,23.25
2018-10-19T08:47:29.735Z,23.29
2018-10-19T08:48:29.697Z,23.26
2018-10-19T08:49:29.708Z,23.28
2018-10-19T08:50:29.694Z,23.28
2018-10-19T08:51:29.684Z,23.25
2018-10-19T08:52:29.651Z,23.26
2018-10-19T08:53:29.673Z,23.26
2018-10-19T08:54:29.636Z,23.34
2018-10-19T08:55:29.675Z,23.32
2018-10-19T08:56:29.628Z,23.26
2018-10-19T08:57:29.594Z,23.29
2018-10-19T08:58:29.589Z,23.35
2018-10-19T08:59:29.575Z,23.29
2018-10-19T09:00:29.560Z,23.35
2018-10-19T09:01:29.589Z,23.29
2018-10-19T09:02:29.542Z,23.24
2018-10-19T09:03:29.577Z,23.26
2018-10-19T09:04:29.527Z,23.25
2018-10-19T09:05:29.504Z,23.32
2018-10-19T09:06:29.494Z,23.29
2018-10-19T09:07:29.497Z,23.34
2018-10-19T09:08:29.471Z,23.35
2018-10-19T09:09:29.527Z,23.29
2018-10-19T09:10:29.448Z,23.35
2018-10-19T09:11:29.536Z,23.38
2018-10-19T09:12:29.468Z,23.25
2018-10-19T09:13:29.416Z,23.34
2018-10-19T09:14:29.428Z,23.37
2018-10-19T09:15:29.463Z,23.41
2018-10-19T09:16:29.436Z,23.34
2018-10-19T09:17:29.384Z,23.40
2018-10-19T09:18:29.440Z,23.32
2018-10-19T09:19:29.353Z,23.35
2018-10-19T09:20:29.340Z,23.29
2018-10-19T09:21:29.350Z,23.29
2018-10-19T09:22:29.327Z,23.35
2018-10-19T09:23:29.306Z,23.38
2018-10-19T09:24:29.295Z,23.44
2018-10-19T09:25:29.289Z,23.32
2018-10-19T09:26:29.273Z,23.35
2018-10-19T09:27:29.287Z,23.34
2018-10-19T09:28:29.251Z,23.38
2018-10-19T09:29:29.303Z,23.32
2018-10-19T09:30:29.228Z,23.35
2018-10-19T09:31:29.257Z,23.34
2018-10-19T09:32:29.254Z,23.42
2018-10-19T09:33:29.193Z,23.34
2018-10-19T09:34:29.181Z,23.32
2018-10-19T09:35:29.259Z,23.35
2018-10-19T09:36:29.359Z,23.38
2018-10-19T09:37:29.284Z,23.38
2018-10-19T09:38:29.138Z,23.34
2018-10-19T09:39:29.130Z,23.37
2018-10-19T09:40:29.128Z,23.34
2018-10-19T09:41:29.189Z,23.44
2018-10-19T09:42:29.106Z,23.34
2018-10-19T09:43:29.092Z,23.35
2018-10-19T09:44:29.073Z,23.35
2018-10-19T09:45:29.064Z,23.38
2018-10-19T09:46:29.061Z,23.38
2018-10-19T09:47:29.107Z,23.38
2018-10-19T09:48:29.031Z,23.29
2018-10-19T09:49:29.020Z,23.37
2018-10-19T09:50:29.008Z,23.35
2018-10-19T09:51:28.995Z,23.40
2018-10-19T09:52:29.000Z,23.29
2018-10-19T09:53:28.976Z,23.41
2018-10-19T09:54:28.962Z,23.35
2018-10-19T09:55:28.951Z,23.32
2018-10-19T09:56:28.953Z,23.35
2018-10-19T09:57:28.941Z,23.38
2018-10-19T09:58:28.919Z,23.35
2018-10-19T09:59:28.912Z,23.44
2018-10-19T10:00:28.945Z,23.38
2018-10-19T10:01:28.892Z,23.40
2018-10-19T10:02:28.897Z,23.38
2018-10-19T10:03:28.863Z,23.40
2018-10-19T10:04:28.851Z,23.38
2018-10-19T10:05:28.848Z,23.34
2018-10-19T10:06:28.841Z,23.48
2018-10-19T10:07:28.822Z,23.40
2018-10-19T10:08:28.819Z,23.40
2018-10-19T10:09:28.801Z,23.37
2018-10-19T10:10:28.809Z,23.40
2018-10-19T10:11:28.787Z,23.41
2018-10-19T10:12:28.764Z,23.41
2018-10-19T10:13:28.768Z,23.37
2018-10-19T10:14:28.741Z,23.45
2018-10-19T10:15:28.870Z,23.45
2018-10-19T10:16:28.741Z,23.41
2018-10-19T10:17:28.720Z,23.47
2018-10-19T10:18:28.710Z,23.47
2018-10-19T10:19:28.702Z,23.48
2018-10-19T10:20:28.674Z,23.47
2018-10-19T10:21:28.666Z,23.52
2018-10-19T10:22:28.662Z,23.47
2018-10-19T10:23:28.670Z,23.47
2018-10-19T10:24:28.671Z,23.50
2018-10-19T10:25:28.638Z,23.57
2018-10-19T10:26:28.607Z,23.52
2018-10-19T10:27:28.602Z,23.53
2018-10-19T10:28:28.612Z,23.50
2018-10-19T10:29:28.616Z,23.52
2018-10-19T10:30:28.564Z,23.52
2018-10-19T10:31:28.553Z,23.59
2018-10-19T10:32:28.644Z,23.56
2018-10-19T10:33:28.552Z,23.52
2018-10-19T10:34:28.538Z,23.56
2018-10-19T10:35:28.509Z,23.56
2018-10-19T10:36:28.504Z,23.57
2018-10-19T10:37:28.487Z,23.64
2018-10-19T10:38:28.513Z,23.62
2018-10-19T10:39:28.499Z,23.59
2018-10-19T10:40:28.492Z,23.66
2018-10-19T10:41:28.444Z,23.63
2018-10-19T10:42:28.452Z,23.67
2018-10-19T10:43:28.427Z,23.60
2018-10-19T10:44:28.473Z,23.72
2018-10-19T10:45:28.410Z,23.75
2018-10-19T10:46:28.430Z,23.67
2018-10-19T10:47:28.382Z,23.62
2018-10-19T10:48:28.374Z,23.70
2018-10-19T10:49:28.382Z,23.60
2018-10-19T10:50:28.370Z,23.63
2018-10-19T10:51:28.354Z,23.62
2018-10-19T10:52:28.323Z,23.78
2018-10-19T10:53:28.322Z,23.78
2018-10-19T10:54:28.312Z,23.77
2018-10-19T10:55:28.319Z,23.81
2018-10-19T10:56:28.311Z,23.74
2018-10-19T10:57:28.284Z,23.81
2018-10-19T10:58:28.260Z,23.72
2018-10-19T10:59:28.257Z,23.82
2018-10-19T11:00:28.234Z,23.77
2018-10-19T11:01:28.230Z,23.74
2018-10-19T11:02:28.221Z,23.81
2018-10-19T11:03:28.200Z,23.79
2018-10-19T11:04:28.210Z,23.78
2018-10-19T11:05:28.181Z,23.84
2018-10-19T11:06:28.168Z,23.84
2018-10-19T11:07:28.301Z,23.82
2018-10-19T11:08:28.149Z,23.90
2018-10-19T11:09:28.186Z,23.84
2018-10-19T11:10:28.123Z,23.90
2018-10-19T11:11:28.113Z,23.82
2018-10-19T11:12:28.103Z,23.77
2018-10-19T11:13:28.097Z,23.82
2018-10-19T11:14:28.091Z,23.82
2018-10-19T11:15:28.071Z,23.79
2018-10-19T11:16:28.061Z,23.84
2018-10-19T11:17:28.053Z,23.84
2018-10-19T11:18:28.042Z,23.84
2018-10-19T11:19:28.060Z,23.96
2018-10-19T11:20:28.016Z,23.94
2018-10-19T11:21:28.005Z,23.92
2018-10-19T11:22:27.996Z,23.97
2018-10-19T11:23:27.984Z,23.93
2018-10-19T11:24:27.992Z,24.00
2018-10-19T11:25:27.979Z,23.97
2018-10-19T11:26:27.951Z,23.94
2018-10-19T11:27:27.981Z,23.93
2018-10-19T11:28:27.930Z,23.99
2018-10-19T11:29:27.957Z,23.99
2018-10-19T11:30:27.966Z,23.99
2018-10-19T11:31:27.917Z,24.07
2018-10-19T11:32:27.887Z,24.04
2018-10-19T11:33:27.877Z,24.02
2018-10-19T11:34:27.892Z,24.02
2018-10-19T11:35:27.873Z,24.02
2018-10-19T11:36:27.847Z,24.04
2018-10-19T11:37:27.863Z,24.07
2018-10-19T11:38:27.825Z,24.04
2018-10-19T11:39:27.812Z,24.09
2018-10-19T11:40:27.826Z,24.07
2018-10-19T11:41:27.798Z,24.07
2018-10-19T11:42:27.800Z,24.09
2018-10-19T11:43:27.801Z,24.09
2018-10-19T11:44:27.763Z,24.12
2018-10-19T11:45:27.835Z,24.15
2018-10-19T11:46:27.738Z,24.21
2018-10-19T11:47:27.734Z,24.21
2018-10-19T11:48:27.726Z,24.14
2018-10-19T11:49:27.704Z,24.22
2018-10-19T11:50:27.712Z,24.17
2018-10-19T11:51:27.682Z,24.04
2018-10-19T11:52:27.692Z,24.14
2018-10-19T11:53:27.664Z,24.11
2018-10-19T11:54:27.659Z,24.22
2018-10-19T11:55:27.652Z,24.17
2018-10-19T11:56:27.630Z,24.18
2018-10-19T11:57:27.618Z,24.17
2018-10-19T11:58:27.611Z,24.18
2018-10-19T11:59:27.602Z,24.21
2018-10-19T12:00:27.654Z,24.08
2018-10-19T12:01:27.593Z,24.24
2018-10-19T12:02:27.566Z,24.24
2018-10-19T12:03:27.606Z,24.24
2018-10-19T12:04:27.545Z,24.14
2018-10-19T12:05:27.543Z,24.22
2018-10-19T12:06:27.540Z,24.18
2018-10-19T12:07:27.515Z,24.22
2018-10-19T12:08:27.501Z,24.21
2018-10-19T12:09:27.491Z,24.22
2018-10-19T12:10:27.533Z,24.27
2018-10-19T12:11:27.482Z,24.21
2018-10-19T12:12:27.463Z,24.18
2018-10-19T12:13:27.451Z,24.22
2018-10-19T12:14:27.439Z,24.22
2018-10-19T12:15:27.467Z,24.27
2018-10-19T12:16:27.487Z,24.21
2018-10-19T12:17:27.422Z,24.19
2018-10-19T12:18:27.400Z,24.22
2018-10-19T12:19:27.386Z,24.24
2018-10-19T12:20:27.376Z,24.19
2018-10-19T12:21:27.423Z,24.26
2018-10-19T12:22:27.353Z,24.22
2018-10-19T12:23:27.362Z,24.24
2018-10-19T12:24:27.343Z,24.24
2018-10-19T12:25:27.322Z,24.21
2018-10-19T12:26:27.323Z,24.24
2018-10-19T12:27:27.303Z,24.26
2018-10-19T12:28:27.291Z,24.32
2018-10-19T12:29:27.281Z,24.27
2018-10-19T12:30:27.267Z,24.17
2018-10-19T12:31:27.272Z,24.21
2018-10-19T12:32:27.246Z,24.26
2018-10-19T12:33:27.269Z,24.34
2018-10-19T12:34:27.225Z,24.24
2018-10-19T12:35:27.262Z,24.22
2018-10-19T12:36:27.219Z,24.26
2018-10-19T12:37:27.194Z,24.39
2018-10-19T12:38:27.203Z,24.37
2018-10-19T12:39:27.171Z,24.37
2018-10-19T12:40:27.168Z,24.29
2018-10-19T12:41:27.166Z,24.39
2018-10-19T12:42:27.140Z,24.32
2018-10-19T12:43:27.135Z,24.33
2018-10-19T12:44:27.119Z,24.36
2018-10-19T12:45:27.107Z,24.39
2018-10-19T12:46:27.109Z,24.36
2018-10-19T12:47:27.113Z,24.34
2018-10-19T12:48:27.080Z,24.37
2018-10-19T12:49:27.064Z,24.29
2018-10-19T12:50:27.058Z,24.36
2018-10-19T12:51:27.056Z,24.19
2018-10-19T12:52:27.040Z,24.40